Naimakka, Sweden

2:17 PM CEST on October 20, 2014 (GMT +0200)
Enontekio | Change Station
CLOSE
Current Station
Airport
Location: ENONTEKIO,
Elevation: 306 m
Nearby Weather Stations

Elev 306 m 68.36 °N, 23.42 °E | Updated 27 minutes ago

Overcast
Overcast
-6 °C
Feels Like -11 °C
N
11
Wind Variable Wind from NE

Today
High -- | Low -- °C
--% Chance of Precip.
Yesterday
High -- | Low -- °C
Precip. -- mm
7:59 AM 4:36 PM
Waning Crescent, 11% visible
Pressure 1006 hPa
Visibility 10.0 kilometers
Clouds Overcast 426 m
Windchill -11 °C
Dew Point -6 °C
Humidity 100%
Rainfall 0.0 mm
Snow Depth Not available.
UV 0 out of 12
Pollen Not available.
Air Quality Not available.
Flu Activity Not available.
METAR EFET 201150Z AUTO 05006KT 010V080 9999 OVC014 M06/M06 Q1006

More Conditions Fewer Conditions

Pressure 1006 hPa
Visibility 10.0 kilometers
Clouds Overcast 426 m
Windchill -11 °C
Dew Point -6 °C
Humidity 100%
Rainfall 0.0 mm
Snow Depth Not available.
UV 0 out of 12
Pollen Not available.
Air Quality Not available.
Flu Activity Not available.
METAR EFET 201150Z AUTO 05006KT 010V080 9999 OVC014 M06/M06 Q1006

More Conditions Fewer Conditions

10-Day Weather Forecast

Almanac

Astronomy

Oct. 20, 2014 Rise Set
Actual Time 7:59 AM CEST 4:36 PM CEST
Civil Twilight 6:58 AM CEST 5:36 PM CEST
Nautical Twilight 5:52 AM CEST 6:43 PM CEST
Astronomical Twilight 4:44 AM CEST 7:50 PM CEST
Moon 2:53 AM CEST 4:12 PM CEST
Length of Visible Light 10h 38m
Length of Day
8h 36m
Tomorrow will be 8m 23s shorter.
Waning Crescent, 11% of the Moon is Illuminated
Today
Waning Crescent
Oct 23
New
Oct 30
First Quarter
Nov 6
Full
Nov 14
Last Quarter

Yesterday's Extremes

Country Highs Country Lows

Community

WunderPhotos

Upload Photos

1,763,349 photos uploaded!

WunderBlogs® & News

Nearby

Snow Depth

Not available.

Earthquake Activity

City Distance Mag. Time & Date
No recent earthquake activity has been reported nearby.
Minimum magnitude displayed is 2.5.

Coastal Water Temperatures

Place Temperature
No Stations Reporting

Nearby Weather Stations